LF3825 weather

Public forecast

Using degrees Celsius for public forecast. Weather courtesy of forecast.io.

Closest aviation weather report (METAR) to Altiport du Col de Sarenne

Closest report is Chambéry-Savoie Airport, 34.9 nm (64.6 km) NNW. Retrieved 2020/08/10 05:30 UTC (0 seconds ago):

LFLB 100530Z AUTO 00000KT CAVOK 19/16 Q1015 NOSIG

Closest aviation forecast (TAF) to Altiport du Col de Sarenne

Closest forecast is Chambéry-Savoie Airport, 34.9 nm (64.6 km) NNW. Retrieved 2020-08-10 00:21 UTC (5 hours ago):

TAF LFLB 092300Z 1000/1024 VRB02KT CAVOK PROB40 TEMPO 1005/1010 -SHRA FEW090CB BECMG 1007/1009 18008KT TEMPO 1015/1024 FEW080CB PROB40 TEMPO 1018/1023 VRB15G30KT 4000 TSRA BKN070CB